Terminal Aerodrome Forecast
Issued by NWS Bismarck, ND

Home | Current Version | Previous Version | Graphics & Text | Print | Product List | Glossary On
Versions: 1 2 3 4 5 6 7 8 9 10 11 12 13 14 15 16 17 18 19 20 21 22 23 24 25 26 27 28 29 30 31
766
FTUS43 KBIS 171720
TAFISN
TAF
KISN 171720Z 1718/1818 15014G21KT P6SM SCT120
     FM172100 14012G26KT 6SM -RA OVC025
     FM172300 11008KT 6SM -RA OVC020
     FM180100 09006KT P6SM VCSH OVC015
     FM180700 VRB03KT P6SM OVC015=

USA.gov is the U.S. government's official web portal to all federal, state and local government web resources and services.